createdAt,value
2019-05-05T00:01:15.673Z,41.33
2019-05-05T00:03:48.610Z,40.63
2019-05-05T00:06:17.212Z,38.57
2019-05-05T00:08:45.931Z,40.00
2019-05-05T00:11:25.475Z,41.73
2019-05-05T00:14:07.819Z,38.87
2019-05-05T00:16:46.905Z,39.37
2019-05-05T00:19:29.457Z,40.87
2019-05-05T00:21:46.034Z,38.80
2019-05-05T00:24:15.240Z,38.90
2019-05-05T00:26:45.911Z,39.13
2019-05-05T00:29:14.956Z,39.87
2019-05-05T00:31:45.419Z,40.13
2019-05-05T00:34:15.290Z,38.90
2019-05-05T00:36:44.678Z,37.97
2019-05-05T00:39:15.010Z,38.70
2019-05-05T00:41:44.930Z,36.23
2019-05-05T00:44:15.339Z,36.73
2019-05-05T00:46:49.277Z,35.80
2019-05-05T00:49:18.054Z,35.30
2019-05-05T00:51:46.730Z,36.20
2019-05-05T00:54:15.377Z,36.77
2019-05-05T00:56:45.002Z,39.47
2019-05-05T00:59:15.495Z,38.33
2019-05-05T01:02:02.047Z,41.27
2019-05-05T01:04:32.402Z,38.10
2019-05-05T01:07:01.106Z,40.73
2019-05-05T01:09:30.583Z,41.43
2019-05-05T01:11:59.874Z,41.77
2019-05-05T01:14:28.653Z,42.73
2019-05-05T01:16:57.357Z,42.87
2019-05-05T01:19:25.959Z,40.73
2019-05-05T01:21:54.958Z,40.37
2019-05-05T01:24:24.891Z,40.37
2019-05-05T01:26:55.116Z,40.67
2019-05-05T01:29:25.275Z,40.43
2019-05-05T01:31:55.781Z,41.20
2019-05-05T01:34:32.267Z,40.50
2019-05-05T01:37:02.541Z,41.30
2019-05-05T01:39:35.852Z,41.00
2019-05-05T01:42:06.140Z,39.67
2019-05-05T01:44:35.290Z,37.17
2019-05-05T01:47:05.339Z,39.67
2019-05-05T01:49:34.548Z,36.27
2019-05-05T01:52:04.340Z,36.97
2019-05-05T01:54:35.125Z,36.73
2019-05-05T01:57:05.425Z,38.03
2019-05-05T01:59:35.382Z,37.10
2019-05-05T02:02:04.374Z,34.63
2019-05-05T02:04:34.327Z,36.47
2019-05-05T02:07:05.436Z,37.27
2019-05-05T02:09:35.355Z,34.33
2019-05-05T02:12:05.135Z,35.23
2019-05-05T02:14:35.235Z,34.60
2019-05-05T02:17:05.058Z,33.53
2019-05-05T02:19:35.026Z,33.60
2019-05-05T02:22:05.307Z,33.20
2019-05-05T02:24:35.376Z,31.17
2019-05-05T02:27:05.167Z,33.07
2019-05-05T02:29:47.663Z,34.50
2019-05-05T02:32:25.706Z,33.87
2019-05-05T02:34:56.459Z,34.50
2019-05-05T02:37:25.803Z,34.50
2019-05-05T02:39:58.923Z,35.63
2019-05-05T02:42:27.060Z,36.70
2019-05-05T02:44:58.673Z,36.10
2019-05-05T02:47:37.644Z,36.73
2019-05-05T02:50:07.979Z,34.90
2019-05-05T02:52:39.390Z,34.27
2019-05-05T02:55:08.866Z,37.20
2019-05-05T02:57:37.503Z,36.70
2019-05-05T03:00:08.547Z,36.03
2019-05-05T03:02:37.269Z,34.93
2019-05-05T03:05:06.723Z,36.20
2019-05-05T03:07:36.967Z,34.57
2019-05-05T03:10:07.852Z,36.63
2019-05-05T03:12:39.526Z,36.40
2019-05-05T03:15:10.395Z,35.77
2019-05-05T03:17:39.268Z,34.90
2019-05-05T03:20:08.421Z,36.83
2019-05-05T03:22:37.023Z,35.47
2019-05-05T03:25:07.581Z,36.23
2019-05-05T03:27:36.491Z,36.70
2019-05-05T03:30:06.675Z,36.07
2019-05-05T03:32:36.336Z,34.97
2019-05-05T03:35:05.883Z,35.30
2019-05-05T03:37:34.739Z,32.47
2019-05-05T03:40:05.803Z,31.60
2019-05-05T03:42:36.320Z,34.70
2019-05-05T03:45:14.525Z,32.87
2019-05-05T03:47:44.068Z,33.23
2019-05-05T03:50:14.454Z,32.90
2019-05-05T03:52:43.911Z,33.27
2019-05-05T03:55:13.822Z,32.17
2019-05-05T03:57:44.540Z,33.73
2019-05-05T04:00:15.258Z,33.73
2019-05-05T04:02:48.215Z,35.07
2019-05-05T04:05:18.493Z,35.07
2019-05-05T04:07:47.104Z,32.37
2019-05-05T04:10:15.706Z,31.90
2019-05-05T04:12:44.941Z,30.47
2019-05-05T04:15:14.276Z,33.23
2019-05-05T04:17:44.757Z,31.07
2019-05-05T04:20:21.287Z,29.53
2019-05-05T04:22:49.882Z,30.00
2019-05-05T04:25:18.492Z,28.27
2019-05-05T04:27:47.126Z,29.53
2019-05-05T04:30:15.807Z,30.03
2019-05-05T04:32:44.440Z,28.93
2019-05-05T04:35:14.046Z,29.17
2019-05-05T04:37:43.728Z,27.30
2019-05-05T04:40:14.743Z,26.97
2019-05-05T04:42:44.137Z,26.63
2019-05-05T04:45:14.838Z,26.10
2019-05-05T04:47:48.377Z,26.23
2019-05-05T04:50:34.530Z,25.67
2019-05-05T04:53:05.030Z,24.87
2019-05-05T04:55:34.269Z,24.10
2019-05-05T04:58:04.626Z,24.17
2019-05-05T05:00:34.213Z,22.10
2019-05-05T05:03:07.601Z,23.27
2019-05-05T05:05:53.573Z,23.60
2019-05-05T05:08:24.589Z,21.27
2019-05-05T05:10:54.306Z,21.30
2019-05-05T05:13:24.491Z,21.00
2019-05-05T05:15:53.961Z,21.90
2019-05-05T05:18:24.058Z,21.63
2019-05-05T05:20:54.880Z,22.97
2019-05-05T05:23:24.684Z,24.50
2019-05-05T05:25:54.464Z,25.80
2019-05-05T05:28:23.708Z,24.67
2019-05-05T05:30:54.339Z,24.53
2019-05-05T05:33:23.888Z,24.03
2019-05-05T05:35:54.491Z,24.10
2019-05-05T05:38:24.261Z,24.13
2019-05-05T05:40:57.439Z,25.17
2019-05-05T05:43:36.739Z,23.97
2019-05-05T05:46:07.011Z,21.83
2019-05-05T05:48:40.249Z,21.83
2019-05-05T05:51:10.594Z,21.20
2019-05-05T05:53:39.212Z,22.27
2019-05-05T05:56:07.822Z,20.23
2019-05-05T05:58:36.457Z,21.27
2019-05-05T06:01:05.208Z,20.27
2019-05-05T06:03:34.065Z,20.50
2019-05-05T06:06:04.712Z,20.43
2019-05-05T06:08:34.675Z,21.43
2019-05-05T06:11:04.422Z,20.17
2019-05-05T06:13:33.753Z,18.97
2019-05-05T06:16:04.196Z,19.77
2019-05-05T06:18:34.561Z,19.33
2019-05-05T06:21:04.507Z,19.57
2019-05-05T06:23:34.395Z,19.87
2019-05-05T06:26:06.718Z,19.70
2019-05-05T06:28:34.169Z,19.43
2019-05-05T06:31:04.839Z,18.53
2019-05-05T06:33:34.757Z,17.47
2019-05-05T06:36:03.856Z,17.57
2019-05-05T06:38:34.486Z,17.97
2019-05-05T06:41:10.433Z,18.57
2019-05-05T06:43:44.102Z,17.93
2019-05-05T06:46:17.629Z,19.73
2019-05-05T06:48:46.291Z,17.63
2019-05-05T06:51:14.998Z,18.30
2019-05-05T06:53:43.712Z,18.83
2019-05-05T06:56:14.581Z,17.90
2019-05-05T06:58:44.780Z,18.17
2019-05-05T07:01:14.331Z,19.60
2019-05-05T07:03:43.894Z,19.00
2019-05-05T07:06:14.516Z,18.40
2019-05-05T07:08:43.971Z,19.20
2019-05-05T07:11:14.511Z,19.83
2019-05-05T07:13:44.273Z,18.03
2019-05-05T07:16:14.962Z,17.20
2019-05-05T07:18:44.632Z,19.17
2019-05-05T07:21:14.236Z,18.43
2019-05-05T07:23:44.473Z,17.43
2019-05-05T07:26:14.339Z,17.90
2019-05-05T07:28:44.756Z,18.97
2019-05-05T07:31:14.386Z,16.30
2019-05-05T07:33:43.883Z,17.47
2019-05-05T07:36:26.593Z,16.90
2019-05-05T07:38:55.278Z,16.33
2019-05-05T07:41:23.986Z,16.77
2019-05-05T07:43:54.225Z,16.27
2019-05-05T07:46:24.097Z,16.20
2019-05-05T07:48:54.486Z,16.97
2019-05-05T07:51:24.221Z,16.97
2019-05-05T07:53:54.639Z,17.70
2019-05-05T07:56:23.859Z,16.60
2019-05-05T07:58:54.337Z,14.80
2019-05-05T08:01:24.496Z,16.10
2019-05-05T08:03:53.928Z,15.83
2019-05-05T08:06:23.713Z,16.17
2019-05-05T08:08:54.529Z,17.60
2019-05-05T08:11:23.891Z,18.00
2019-05-05T08:13:54.604Z,18.60
2019-05-05T08:16:24.681Z,16.40
2019-05-05T08:18:54.979Z,16.17
2019-05-05T08:21:24.094Z,18.73
2019-05-05T08:23:54.400Z,17.57
2019-05-05T08:26:41.132Z,18.00
2019-05-05T08:29:29.915Z,14.67
2019-05-05T08:32:13.584Z,15.80
2019-05-05T08:34:55.072Z,16.13
2019-05-05T08:37:14.597Z,15.33
2019-05-05T08:39:44.687Z,16.10
2019-05-05T08:42:14.427Z,15.70
2019-05-05T08:44:44.739Z,16.07
2019-05-05T08:47:13.949Z,16.00
2019-05-05T08:49:44.254Z,16.30
2019-05-05T08:52:14.538Z,16.90
2019-05-05T08:54:44.699Z,16.77
2019-05-05T08:57:14.703Z,14.87
2019-05-05T08:59:44.002Z,14.70
2019-05-05T09:02:14.894Z,14.97
2019-05-05T09:04:44.663Z,14.50
2019-05-05T09:07:13.856Z,13.70
2019-05-05T09:09:44.224Z,14.10
2019-05-05T09:12:13.952Z,10.87
2019-05-05T09:14:44.717Z,8.93
2019-05-05T09:17:13.763Z,6.50
2019-05-05T09:19:44.693Z,7.33
2019-05-05T09:22:13.985Z,9.43
2019-05-05T09:24:47.339Z,8.93
2019-05-05T09:27:20.855Z,13.03
2019-05-05T09:29:49.532Z,17.50
2019-05-05T09:32:18.238Z,18.97
2019-05-05T09:34:47.016Z,11.03
2019-05-05T09:37:15.666Z,14.93
2019-05-05T09:39:44.422Z,12.40
2019-05-05T09:42:14.586Z,11.03
2019-05-05T09:44:46.343Z,8.37
2019-05-05T09:47:15.059Z,8.47
2019-05-05T09:49:44.529Z,9.03
2019-05-05T09:52:13.958Z,8.67
2019-05-05T09:54:43.835Z,8.57
2019-05-05T09:57:14.583Z,7.50
2019-05-05T09:59:44.086Z,7.30
2019-05-05T10:02:13.293Z,6.60
2019-05-05T10:04:43.930Z,6.60
2019-05-05T10:07:13.742Z,7.50
2019-05-05T10:09:43.797Z,7.40
2019-05-05T10:12:12.639Z,6.60
2019-05-05T10:14:41.331Z,6.23
2019-05-05T10:17:09.998Z,6.97
2019-05-05T10:19:38.639Z,7.13
2019-05-05T10:22:07.263Z,7.77
2019-05-05T10:24:40.360Z,8.93
2019-05-05T10:27:09.068Z,12.70
2019-05-05T10:29:37.816Z,12.77
2019-05-05T10:32:06.457Z,13.50
2019-05-05T10:34:35.118Z,11.00
2019-05-05T10:37:04.294Z,10.47
2019-05-05T10:39:34.671Z,10.70
2019-05-05T10:42:04.115Z,10.33
2019-05-05T10:44:34.104Z,11.47
2019-05-05T10:47:04.552Z,11.27
2019-05-05T10:49:33.812Z,12.07
2019-05-05T10:52:03.671Z,11.83
2019-05-05T10:54:41.592Z,12.63
2019-05-05T10:57:03.970Z,12.03
2019-05-05T10:59:34.407Z,14.40
2019-05-05T11:02:04.842Z,11.67
2019-05-05T11:04:33.909Z,11.73
2019-05-05T11:07:04.239Z,12.13
2019-05-05T11:09:34.239Z,11.57
2019-05-05T11:12:02.918Z,11.90
2019-05-05T11:14:33.541Z,11.67
2019-05-05T11:17:04.183Z,10.87
2019-05-05T11:19:33.593Z,11.23
2019-05-05T11:22:02.479Z,11.13
2019-05-05T11:24:31.128Z,12.77
2019-05-05T11:26:59.738Z,8.43
2019-05-05T11:29:28.380Z,9.43
2019-05-05T11:31:58.719Z,8.00
2019-05-05T11:34:27.883Z,7.83
2019-05-05T11:36:58.180Z,8.50
2019-05-05T11:39:26.821Z,8.07
2019-05-05T11:41:55.484Z,7.90
2019-05-05T11:44:24.427Z,8.23
2019-05-05T11:46:54.680Z,8.37
2019-05-05T11:49:24.504Z,8.30
2019-05-05T11:51:54.227Z,8.00
2019-05-05T11:54:24.610Z,7.50
2019-05-05T11:56:53.996Z,8.40
2019-05-05T11:59:23.737Z,8.53
2019-05-05T12:01:54.951Z,8.83
2019-05-05T12:04:23.977Z,7.20
2019-05-05T12:06:52.958Z,7.83
2019-05-05T12:09:24.742Z,8.27
2019-05-05T12:11:54.494Z,8.07
2019-05-05T12:14:27.138Z,8.50
2019-05-05T12:16:55.322Z,7.57
2019-05-05T12:19:24.399Z,8.33
2019-05-05T12:21:54.746Z,7.87
2019-05-05T12:24:25.275Z,7.97
2019-05-05T12:26:55.599Z,9.13
2019-05-05T12:29:24.654Z,8.93
2019-05-05T12:31:53.536Z,8.23
2019-05-05T12:34:23.651Z,8.10
2019-05-05T12:36:53.939Z,8.77
2019-05-05T12:39:22.838Z,8.53
2019-05-05T12:41:51.603Z,8.93
2019-05-05T12:44:23.670Z,9.03
2019-05-05T12:47:10.686Z,10.30
2019-05-05T12:49:39.389Z,10.13
2019-05-05T12:52:08.071Z,11.47
2019-05-05T12:54:36.781Z,13.50
2019-05-05T12:57:13.477Z,13.00
2019-05-05T12:59:40.547Z,14.20
2019-05-05T13:02:09.233Z,14.90
2019-05-05T13:04:37.939Z,15.27
2019-05-05T13:07:08.273Z,14.70
2019-05-05T13:09:36.976Z,13.70
2019-05-05T13:12:05.624Z,14.40
2019-05-05T13:14:34.292Z,13.10
2019-05-05T13:17:03.675Z,12.27
2019-05-05T13:19:34.706Z,12.80
2019-05-05T13:22:05.163Z,12.70
2019-05-05T13:24:44.216Z,13.27
2019-05-05T13:27:20.445Z,13.20
2019-05-05T13:29:49.136Z,13.30
2019-05-05T13:32:17.863Z,12.77
2019-05-05T13:34:46.499Z,12.63
2019-05-05T13:37:15.226Z,13.70
2019-05-05T13:39:44.575Z,11.27
2019-05-05T13:42:13.932Z,10.80
2019-05-05T13:44:56.313Z,10.50
2019-05-05T13:47:24.938Z,10.07
2019-05-05T13:49:55.313Z,10.10
2019-05-05T13:52:24.484Z,10.37
2019-05-05T13:54:54.345Z,9.00
2019-05-05T13:57:24.599Z,9.27
2019-05-05T13:59:54.598Z,8.87
2019-05-05T14:02:24.455Z,9.27
2019-05-05T14:04:54.182Z,8.63
2019-05-05T14:07:23.967Z,8.00
2019-05-05T14:09:54.785Z,7.87
2019-05-05T14:12:24.058Z,7.03
2019-05-05T14:14:54.597Z,7.30
2019-05-05T14:17:23.365Z,7.23
2019-05-05T14:20:02.511Z,7.80
2019-05-05T14:22:24.255Z,7.80
2019-05-05T14:24:54.308Z,7.13
2019-05-05T14:27:23.784Z,6.83
2019-05-05T14:29:56.947Z,7.10
2019-05-05T14:32:27.228Z,6.90
2019-05-05T14:34:57.511Z,6.90
2019-05-05T14:37:44.465Z,5.97
2019-05-05T14:40:14.001Z,6.07
2019-05-05T14:42:43.481Z,7.13
2019-05-05T14:45:15.344Z,6.63
2019-05-05T14:47:44.290Z,5.87
2019-05-05T14:50:13.441Z,6.70
2019-05-05T14:52:43.987Z,6.63
2019-05-05T14:55:14.073Z,6.83
2019-05-05T14:57:44.073Z,5.50
2019-05-05T15:00:14.891Z,6.30
2019-05-05T15:02:43.904Z,5.60
2019-05-05T15:05:30.576Z,5.33
2019-05-05T15:08:17.042Z,5.03
2019-05-05T15:10:50.400Z,5.33
2019-05-05T15:13:21.175Z,5.27
2019-05-05T15:15:49.856Z,5.30
2019-05-05T15:18:18.534Z,5.83
2019-05-05T15:20:47.569Z,5.30
2019-05-05T15:23:16.429Z,5.30
2019-05-05T15:25:45.083Z,5.43
2019-05-05T15:28:13.877Z,5.97
2019-05-05T15:30:44.117Z,5.67
2019-05-05T15:33:13.793Z,5.33
2019-05-05T15:35:46.300Z,5.47
2019-05-05T15:38:13.783Z,4.80
2019-05-05T15:40:44.489Z,5.57
2019-05-05T15:43:14.281Z,5.57
2019-05-05T15:45:43.412Z,5.17
2019-05-05T15:48:13.935Z,5.97
2019-05-05T15:50:43.921Z,5.30
2019-05-05T15:53:14.405Z,5.23
2019-05-05T15:55:43.403Z,5.53
2019-05-05T15:58:14.025Z,5.60
2019-05-05T16:00:44.202Z,4.97
2019-05-05T16:03:13.570Z,5.27
2019-05-05T16:05:43.639Z,5.43
2019-05-05T16:08:14.162Z,5.27
2019-05-05T16:10:46.215Z,5.50
2019-05-05T16:13:13.865Z,5.57
2019-05-05T16:15:44.405Z,5.80
2019-05-05T16:18:23.864Z,5.50
2019-05-05T16:20:54.675Z,5.20
2019-05-05T16:23:25.101Z,5.13
2019-05-05T16:25:54.251Z,5.00
2019-05-05T16:28:24.988Z,5.60
2019-05-05T16:30:56.064Z,5.23
2019-05-05T16:33:24.175Z,5.67
2019-05-05T16:35:52.892Z,5.40
2019-05-05T16:38:21.591Z,4.70
2019-05-05T16:40:50.191Z,5.37
2019-05-05T16:43:18.884Z,4.80
2019-05-05T16:45:51.261Z,4.73
2019-05-05T16:48:19.963Z,5.10
2019-05-05T16:50:48.563Z,5.13
2019-05-05T16:53:34.506Z,5.17
2019-05-05T16:56:05.018Z,5.43
2019-05-05T16:58:33.686Z,5.60
2019-05-05T17:01:03.772Z,5.87
2019-05-05T17:03:37.564Z,5.73
2019-05-05T17:06:06.235Z,5.83
2019-05-05T17:08:34.874Z,5.40
2019-05-05T17:11:03.573Z,5.50
2019-05-05T17:13:51.995Z,6.43
2019-05-05T17:16:22.266Z,6.57
2019-05-05T17:19:04.554Z,7.40
2019-05-05T17:21:37.814Z,6.97
2019-05-05T17:24:06.575Z,6.10
2019-05-05T17:26:35.635Z,6.10
2019-05-05T17:29:04.394Z,6.63
2019-05-05T17:31:33.990Z,5.90
2019-05-05T17:34:04.187Z,5.87
2019-05-05T17:36:33.041Z,5.83
2019-05-05T17:39:01.784Z,5.97
2019-05-05T17:41:50.089Z,6.37
2019-05-05T17:44:20.328Z,5.87
2019-05-05T17:46:50.598Z,5.30
2019-05-05T17:49:39.575Z,5.87
2019-05-05T17:52:09.835Z,6.13
2019-05-05T17:54:40.081Z,10.60
2019-05-05T17:57:08.718Z,5.97
2019-05-05T17:59:37.323Z,5.87
2019-05-05T18:02:05.947Z,5.40
2019-05-05T18:04:34.643Z,5.60
2019-05-05T18:07:21.289Z,6.03
2019-05-05T18:10:06.999Z,5.60
2019-05-05T18:12:37.295Z,5.83
2019-05-05T18:15:13.824Z,5.33
2019-05-05T18:17:43.373Z,4.47
2019-05-05T18:20:12.363Z,5.70
2019-05-05T18:22:43.426Z,5.57
2019-05-05T18:25:12.036Z,6.63
2019-05-05T18:27:40.632Z,6.30
2019-05-05T18:30:09.627Z,6.17
2019-05-05T18:32:38.506Z,5.23
2019-05-05T18:35:07.290Z,6.07
2019-05-05T18:37:35.943Z,5.83
2019-05-05T18:40:06.781Z,5.87
2019-05-05T18:42:35.727Z,5.90
2019-05-05T18:45:09.912Z,5.20
2019-05-05T18:47:38.518Z,5.00
2019-05-05T18:50:07.609Z,5.03
2019-05-05T18:52:36.354Z,5.27
2019-05-05T18:55:06.866Z,4.47
2019-05-05T18:57:35.467Z,5.53
2019-05-05T19:00:06.443Z,5.00
2019-05-05T19:02:48.857Z,4.90
2019-05-05T19:05:35.739Z,4.23
2019-05-05T19:08:06.020Z,4.23
2019-05-05T19:10:34.678Z,4.07
2019-05-05T19:13:03.346Z,3.90
2019-05-05T19:15:32.122Z,4.30
2019-05-05T19:18:00.745Z,4.27
2019-05-05T19:20:35.229Z,4.00
2019-05-05T19:23:05.874Z,3.57
2019-05-05T19:25:35.758Z,4.00
2019-05-05T19:28:04.917Z,4.40
2019-05-05T19:30:35.839Z,4.17
2019-05-05T19:33:04.536Z,4.87
2019-05-05T19:35:43.542Z,4.97
2019-05-05T19:38:04.933Z,5.27
2019-05-05T19:40:34.058Z,4.20
2019-05-05T19:43:04.606Z,3.40
2019-05-05T19:45:34.458Z,4.30
2019-05-05T19:48:05.672Z,4.97
2019-05-05T19:50:35.255Z,5.30
2019-05-05T19:53:04.541Z,5.80
2019-05-05T19:55:36.295Z,4.67
2019-05-05T19:58:05.147Z,4.87
2019-05-05T20:00:34.817Z,4.00
2019-05-05T20:03:05.163Z,3.90
2019-05-05T20:05:34.215Z,3.70
2019-05-05T20:08:04.010Z,3.50
2019-05-05T20:10:32.923Z,4.07
2019-05-05T20:13:01.591Z,3.80
2019-05-05T20:15:33.688Z,3.07
2019-05-05T20:18:04.509Z,2.97
2019-05-05T20:20:33.662Z,3.00
2019-05-05T20:23:04.173Z,3.40
2019-05-05T20:25:34.035Z,3.00
2019-05-05T20:28:03.916Z,3.20
2019-05-05T20:30:34.251Z,3.27
2019-05-05T20:33:04.816Z,2.67
2019-05-05T20:35:38.744Z,2.67
2019-05-05T20:38:09.023Z,2.60
2019-05-05T20:40:39.361Z,2.97
2019-05-05T20:43:08.126Z,3.03
2019-05-05T20:45:36.804Z,3.13
2019-05-05T20:48:05.513Z,2.90
2019-05-05T20:50:34.422Z,3.10
2019-05-05T20:53:04.844Z,3.40
2019-05-05T20:55:34.030Z,3.03
2019-05-05T20:58:04.627Z,2.97
2019-05-05T21:00:34.762Z,3.37
2019-05-05T21:03:04.728Z,2.90
2019-05-05T21:05:34.496Z,2.93
2019-05-05T21:08:04.734Z,2.87
2019-05-05T21:10:34.720Z,3.00
2019-05-05T21:13:03.889Z,2.83
2019-05-05T21:15:35.791Z,2.80
2019-05-05T21:18:05.043Z,2.70
2019-05-05T21:20:34.671Z,2.67
2019-05-05T21:25:57.259Z,2.73
2019-05-05T21:28:25.855Z,2.70
2019-05-05T21:30:54.529Z,2.60
2019-05-05T21:33:23.888Z,2.60
2019-05-05T21:35:54.892Z,2.53
2019-05-05T21:38:23.151Z,3.00
2019-05-05T21:40:51.811Z,2.60
2019-05-05T21:43:20.450Z,2.60
2019-05-05T21:45:49.051Z,2.90
2019-05-05T21:48:17.768Z,2.40
2019-05-05T21:50:51.022Z,2.30
2019-05-05T21:53:24.624Z,2.70
2019-05-05T21:55:55.095Z,2.63
2019-05-05T21:58:31.352Z,2.80
2019-05-05T22:01:04.195Z,2.50
2019-05-05T22:03:36.643Z,2.80
2019-05-05T22:06:05.553Z,2.63
2019-05-05T22:08:35.150Z,2.57
2019-05-05T22:11:04.151Z,2.80
2019-05-05T22:13:36.269Z,2.63
2019-05-05T22:16:04.041Z,2.67
2019-05-05T22:18:32.898Z,2.80
2019-05-05T22:21:14.005Z,3.10
2019-05-05T22:23:44.069Z,2.90
2019-05-05T22:26:14.610Z,3.50
2019-05-05T22:28:44.640Z,3.23
2019-05-05T22:31:14.204Z,3.17
2019-05-05T22:33:44.703Z,3.50
2019-05-05T22:36:14.067Z,3.30
2019-05-05T22:38:44.589Z,3.23
2019-05-05T22:41:15.830Z,2.77
2019-05-05T22:43:44.275Z,2.80
2019-05-05T22:46:14.190Z,3.07
2019-05-05T22:48:44.009Z,2.73
2019-05-05T22:51:14.437Z,2.53
2019-05-05T22:53:44.091Z,3.07
2019-05-05T22:56:14.773Z,2.60
2019-05-05T22:58:43.899Z,2.87
2019-05-05T23:01:13.636Z,2.97
2019-05-05T23:03:50.079Z,2.80
2019-05-05T23:06:24.608Z,2.70
2019-05-05T23:08:54.613Z,2.57
2019-05-05T23:11:25.055Z,2.80
2019-05-05T23:13:55.295Z,2.80
2019-05-05T23:16:33.870Z,2.70
2019-05-05T23:19:03.306Z,2.60
2019-05-05T23:21:36.280Z,2.70
2019-05-05T23:24:23.810Z,2.97
2019-05-05T23:26:54.696Z,2.90
2019-05-05T23:29:24.234Z,2.73
2019-05-05T23:31:53.918Z,3.30
2019-05-05T23:34:24.261Z,3.03
2019-05-05T23:36:53.657Z,3.23
2019-05-05T23:39:24.150Z,2.63
2019-05-05T23:41:54.654Z,2.70
2019-05-05T23:44:23.834Z,2.77
2019-05-05T23:46:53.783Z,2.63
2019-05-05T23:49:24.221Z,3.00
2019-05-05T23:51:53.906Z,2.83
2019-05-05T23:54:24.672Z,2.87
2019-05-05T23:56:53.894Z,2.70
2019-05-05T23:59:24.046Z,3.10
